Time;durP1;ratioP1;P1;durP2;ratioP2;P2;SDS_P1;SDS_P2;PMS_P1;PMS_P2;Temp;Humidity;BMP_temperature;BMP_pressure;BME280_temperature;BME280_humidity;BME280_pressure;Samples;Min_cycle;Max_cycle;Signal;HPM_P1;HPM_P2
2024/03/06 00:00:56;;;;;;;29.67;16.77;;;;;;;;;;782277;177;957899;-58
2024/03/06 00:03:22;;;;;;;45.07;22.67;;;;;;;;;;786263;176;921213;-57
2024/03/06 00:05:48;;;;;;;41.97;22.33;;;;;;;;;;781349;177;922056;-59
2024/03/06 00:08:14;;;;;;;38.23;20.67;;;;;;;;;;781799;177;865423;-61
2024/03/06 00:10:40;;;;;;;41.67;23.13;;;;;;;;;;788750;177;917762;-57
2024/03/06 00:13:06;;;;;;;38.03;22.37;;;;;;;;;;779635;177;919100;-57
2024/03/06 00:15:31;;;;;;;42.20;21.17;;;;;;;;;;778041;177;922208;-59
2024/03/06 00:17:58;;;;;;;41.60;24.00;;;;;;;;;;769189;179;919876;-58
2024/03/06 00:20:23;;;;;;;48.30;22.20;;;;;;;;;;775451;177;818650;-57
2024/03/06 00:22:49;;;;;;;42.20;22.00;;;;;;;;;;783808;175;919494;-57
2024/03/06 00:25:15;;;;;;;49.55;22.37;;;;;;;;;;779554;177;917298;-57
2024/03/06 00:27:41;;;;;;;42.07;21.40;;;;;;;;;;786723;177;816841;-58
2024/03/06 00:30:07;;;;;;;40.03;21.47;;;;;;;;;;784374;177;836329;-57
2024/03/06 00:32:33;;;;;;;41.67;22.87;;;;;;;;;;783543;177;817851;-57
2024/03/06 00:34:59;;;;;;;38.90;18.23;;;;;;;;;;788658;177;815437;-58
2024/03/06 00:37:24;;;;;;;40.67;21.77;;;;;;;;;;778327;177;919508;-57
2024/03/06 00:39:50;;;;;;;42.83;22.40;;;;;;;;;;780135;177;915782;-58
2024/03/06 00:42:16;;;;;;;43.57;21.43;;;;;;;;;;777315;177;921105;-58
2024/03/06 00:44:42;;;;;;;41.80;22.00;;;;;;;;;;776390;177;919293;-57
2024/03/06 00:47:08;;;;;;;37.93;20.07;;;;;;;;;;784465;177;919646;-58
2024/03/06 00:49:34;;;;;;;40.73;20.83;;;;;;;;;;781710;177;895361;-57
2024/03/06 00:51:59;;;;;;;41.57;22.77;;;;;;;;;;782116;179;914618;-57
2024/03/06 00:54:25;;;;;;;36.77;15.13;;;;;;;;;;783986;176;888499;-59
2024/03/06 00:56:51;;;;;;;29.33;15.50;;;;;;;;;;780205;176;921529;-58
2024/03/06 00:59:17;;;;;;;43.10;20.60;;;;;;;;;;784203;177;918986;-58
2024/03/06 01:01:43;;;;;;;37.40;20.83;;;;;;;;;;782625;177;919245;-57
2024/03/06 01:04:09;;;;;;;30.47;14.57;;;;;;;;;;782149;177;918580;-57
2024/03/06 01:06:35;;;;;;;42.90;24.00;;;;;;;;;;787182;177;943526;-61
2024/03/06 01:09:00;;;;;;;38.75;23.00;;;;;;;;;;781324;177;820165;-59
2024/03/06 01:11:26;;;;;;;48.70;22.73;;;;;;;;;;781700;177;1230485;-58
2024/03/06 01:13:52;;;;;;;44.60;22.50;;;;;;;;;;781566;177;918252;-58
2024/03/06 01:16:18;;;;;;;35.25;20.27;;;;;;;;;;781346;177;918491;-57
2024/03/06 01:18:44;;;;;;;31.87;18.13;;;;;;;;;;776118;177;920277;-58
2024/03/06 01:21:10;;;;;;;48.43;23.03;;;;;;;;;;782696;177;828517;-56
2024/03/06 01:23:35;;;;;;;43.43;22.97;;;;;;;;;;785193;177;919263;-57
2024/03/06 01:26:01;;;;;;;45.83;24.73;;;;;;;;;;780487;177;1021504;-57
2024/03/06 01:28:27;;;;;;;53.20;26.57;;;;;;;;;;783037;177;918804;-57
2024/03/06 01:30:54;;;;;;;44.67;22.27;;;;;;;;;;780926;177;813391;-58
2024/03/06 01:33:19;;;;;;;57.73;24.87;;;;;;;;;;779951;177;923765;-57
2024/03/06 01:35:45;;;;;;;49.17;26.10;;;;;;;;;;777517;179;919538;-57
2024/03/06 01:38:11;;;;;;;44.17;25.40;;;;;;;;;;777634;177;917771;-58
2024/03/06 01:40:37;;;;;;;44.33;19.43;;;;;;;;;;770165;180;818972;-58
2024/03/06 01:43:02;;;;;;;51.73;25.37;;;;;;;;;;779149;177;857397;-61
2024/03/06 01:45:28;;;;;;;47.55;22.75;;;;;;;;;;782591;177;919528;-57
2024/03/06 01:47:54;;;;;;;58.33;29.00;;;;;;;;;;784643;177;918370;-59
2024/03/06 01:50:20;;;;;;;45.37;22.57;;;;;;;;;;779286;177;917168;-59
2024/03/06 01:52:46;;;;;;;49.37;26.23;;;;;;;;;;774652;177;919091;-57
2024/03/06 01:55:11;;;;;;;51.27;26.37;;;;;;;;;;778530;177;816653;-58
2024/03/06 01:57:37;;;;;;;54.80;27.57;;;;;;;;;;778664;177;918729;-57
2024/03/06 02:00:04;;;;;;;54.58;28.27;;;;;;;;;;774366;177;918834;-58
2024/03/06 02:02:29;;;;;;;57.53;29.77;;;;;;;;;;778939;179;819637;-57
2024/03/06 02:04:57;;;;;;;59.87;29.63;;;;;;;;;;771858;180;813877;-59
2024/03/06 02:07:21;;;;;;;46.57;25.30;;;;;;;;;;770216;178;919337;-57
2024/03/06 02:09:47;;;;;;;37.40;16.63;;;;;;;;;;780422;175;825103;-58
2024/03/06 02:12:13;;;;;;;55.87;28.43;;;;;;;;;;784613;177;817007;-57
2024/03/06 02:14:39;;;;;;;65.45;27.05;;;;;;;;;;777473;177;919319;-57
2024/03/06 02:17:04;;;;;;;47.23;23.47;;;;;;;;;;777601;177;920370;-58
2024/03/06 02:19:36;;;;;;;50.53;25.50;;;;;;;;;;785774;177;816800;-57
2024/03/06 02:22:02;;;;;;;46.53;24.27;;;;;;;;;;779241;178;906008;-57
2024/03/06 02:24:28;;;;;;;54.90;27.17;;;;;;;;;;770017;177;919330;-58
2024/03/06 02:26:54;;;;;;;50.75;23.15;;;;;;;;;;773355;177;918097;-57
2024/03/06 02:29:19;;;;;;;55.43;28.30;;;;;;;;;;782986;177;876961;-58
2024/03/06 02:31:45;;;;;;;41.67;19.33;;;;;;;;;;779192;177;858597;-58
2024/03/06 02:34:11;;;;;;;66.97;30.35;;;;;;;;;;783033;177;876241;-57
2024/03/06 02:36:37;;;;;;;66.67;31.33;;;;;;;;;;785522;177;860411;-58
2024/03/06 02:39:08;;;;;;;54.47;28.70;;;;;;;;;;776499;177;916068;-58
2024/03/06 02:41:30;;;;;;;75.63;33.50;;;;;;;;;;781168;177;918863;-59
2024/03/06 02:43:55;;;;;;;72.00;32.53;;;;;;;;;;784502;177;918920;-58
2024/03/06 02:46:20;;;;;;;53.10;28.30;;;;;;;;;;779564;177;932675;-58
2024/03/06 02:48:46;;;;;;;55.43;27.60;;;;;;;;;;775341;177;910547;-57
2024/03/06 02:51:12;;;;;;;55.50;27.07;;;;;;;;;;771155;179;917245;-57
2024/03/06 02:53:38;;;;;;;48.77;22.37;;;;;;;;;;786205;177;917198;-57
2024/03/06 02:56:05;;;;;;;60.20;28.33;;;;;;;;;;779994;176;918694;-58
2024/03/06 02:58:31;;;;;;;58.63;29.67;;;;;;;;;;774793;177;919656;-57
2024/03/06 03:00:56;;;;;;;50.97;23.77;;;;;;;;;;785801;178;919544;-57
2024/03/06 03:03:22;;;;;;;55.70;27.90;;;;;;;;;;783094;178;858626;-58
2024/03/06 03:05:48;;;;;;;65.13;30.30;;;;;;;;;;779896;177;919632;-58
2024/03/06 03:08:13;;;;;;;70.67;33.63;;;;;;;;;;783798;177;919832;-60
2024/03/06 03:10:39;;;;;;;58.37;31.40;;;;;;;;;;783230;176;817243;-57
2024/03/06 03:13:05;;;;;;;87.27;33.00;;;;;;;;;;775014;177;919308;-58
2024/03/06 03:15:32;;;;;;;52.40;25.60;;;;;;;;;;780945;176;918459;-57
2024/03/06 03:17:57;;;;;;;60.20;25.87;;;;;;;;;;792591;176;898150;-58
2024/03/06 03:20:23;;;;;;;78.57;38.30;;;;;;;;;;782714;176;921033;-58
2024/03/06 03:22:49;;;;;;;67.83;30.07;;;;;;;;;;780092;177;917216;-58
2024/03/06 03:25:14;;;;;;;71.13;28.80;;;;;;;;;;788315;177;918219;-59
2024/03/06 03:27:40;;;;;;;66.30;32.30;;;;;;;;;;780424;177;772640;-58
2024/03/06 03:30:08;;;;;;;59.63;25.87;;;;;;;;;;783809;177;918170;-57
2024/03/06 03:32:33;;;;;;;46.17;25.63;;;;;;;;;;784031;177;915828;-57
2024/03/06 03:34:59;;;;;;;88.37;39.40;;;;;;;;;;779032;178;919449;-57
2024/03/06 03:37:25;;;;;;;44.00;20.15;;;;;;;;;;783140;177;921611;-57
2024/03/06 03:39:51;;;;;;;61.67;28.33;;;;;;;;;;777149;177;919481;-58
2024/03/06 03:42:17;;;;;;;59.33;18.90;;;;;;;;;;785020;178;919813;-59
2024/03/06 03:44:43;;;;;;;72.73;33.87;;;;;;;;;;781562;177;921080;-57
2024/03/06 03:47:08;;;;;;;76.77;34.60;;;;;;;;;;782485;177;861568;-57
2024/03/06 03:49:35;;;;;;;66.83;32.80;;;;;;;;;;785026;177;919126;-57
2024/03/06 03:52:00;;;;;;;63.90;32.63;;;;;;;;;;781805;177;919188;-58
2024/03/06 03:54:26;;;;;;;71.68;33.78;;;;;;;;;;780445;177;1021803;-58
2024/03/06 03:56:52;;;;;;;62.13;33.33;;;;;;;;;;785735;177;919633;-58
2024/03/06 03:59:18;;;;;;;51.33;26.07;;;;;;;;;;775481;179;910473;-57
2024/03/06 04:01:43;;;;;;;52.42;27.48;;;;;;;;;;778707;177;915617;-58
2024/03/06 04:04:09;;;;;;;62.40;30.30;;;;;;;;;;776410;177;921727;-58
2024/03/06 04:06:35;;;;;;;50.23;27.37;;;;;;;;;;776757;178;818062;-58
2024/03/06 04:09:01;;;;;;;89.82;42.20;;;;;;;;;;784699;176;822842;-58
2024/03/06 04:11:27;;;;;;;79.73;39.00;;;;;;;;;;778052;176;721317;-57
2024/03/06 04:13:53;;;;;;;75.90;37.80;;;;;;;;;;788158;177;922169;-58
2024/03/06 04:16:19;;;;;;;96.60;36.40;;;;;;;;;;779977;176;1025063;-57
2024/03/06 04:18:45;;;;;;;85.57;41.27;;;;;;;;;;782721;177;805576;-57
2024/03/06 04:21:10;;;;;;;87.27;40.20;;;;;;;;;;782287;177;854543;-57
2024/03/06 04:23:36;;;;;;;57.20;31.00;;;;;;;;;;786940;177;817223;-57
2024/03/06 04:26:03;;;;;;;54.67;26.77;;;;;;;;;;784037;177;621504;-57
2024/03/06 04:28:28;;;;;;;79.57;33.47;;;;;;;;;;782824;178;654785;-57
2024/03/06 04:30:54;;;;;;;86.50;38.03;;;;;;;;;;782106;176;713736;-59
2024/03/06 04:33:20;;;;;;;81.23;38.57;;;;;;;;;;781795;175;888029;-58
2024/03/06 04:35:45;;;;;;;78.57;41.23;;;;;;;;;;783632;177;629110;-60
2024/03/06 04:38:11;;;;;;;96.53;37.63;;;;;;;;;;794130;177;716184;-57
2024/03/06 04:40:37;;;;;;;70.50;32.97;;;;;;;;;;783389;177;917462;-57
2024/03/06 04:43:03;;;;;;;81.15;35.92;;;;;;;;;;772943;178;874083;-59
2024/03/06 04:45:29;;;;;;;76.60;39.50;;;;;;;;;;785524;177;821805;-59
2024/03/06 04:47:55;;;;;;;63.80;23.17;;;;;;;;;;780143;177;1126160;-60
2024/03/06 04:50:21;;;;;;;82.90;36.40;;;;;;;;;;780535;177;920103;-58
2024/03/06 04:52:46;;;;;;;81.10;36.77;;;;;;;;;;780842;177;1020960;-59
2024/03/06 04:55:14;;;;;;;89.03;36.80;;;;;;;;;;776532;177;920976;-58
2024/03/06 04:57:38;;;;;;;81.65;40.50;;;;;;;;;;777639;177;920050;-59
2024/03/06 05:00:06;;;;;;;72.17;37.13;;;;;;;;;;774117;177;920043;-58
2024/03/06 05:02:34;;;;;;;80.43;36.40;;;;;;;;;;782631;178;919744;-58
2024/03/06 05:04:58;;;;;;;78.60;36.30;;;;;;;;;;779345;177;918289;-60
2024/03/06 05:07:24;;;;;;;66.03;33.67;;;;;;;;;;783129;177;917724;-57
2024/03/06 05:09:50;;;;;;;73.33;32.70;;;;;;;;;;786311;176;626963;-57
2024/03/06 05:12:15;;;;;;;71.30;39.10;;;;;;;;;;781596;176;855439;-59
2024/03/06 05:14:41;;;;;;;54.57;27.93;;;;;;;;;;785870;177;624746;-58
2024/03/06 05:17:10;;;;;;;52.60;24.53;;;;;;;;;;781019;177;917847;-59
2024/03/06 05:19:33;;;;;;;57.35;33.83;;;;;;;;;;781274;177;919275;-59
2024/03/06 05:21:59;;;;;;;50.50;26.67;;;;;;;;;;781715;176;791141;-59
2024/03/06 05:24:25;;;;;;;45.00;24.20;;;;;;;;;;780249;177;918905;-59
2024/03/06 05:26:51;;;;;;;64.28;34.47;;;;;;;;;;782142;177;816270;-58
2024/03/06 05:29:17;;;;;;;60.40;30.43;;;;;;;;;;778443;177;919114;-59
2024/03/06 05:31:43;;;;;;;62.73;33.70;;;;;;;;;;777670;178;905963;-59
2024/03/06 05:34:09;;;;;;;61.60;31.87;;;;;;;;;;786998;177;618847;-59
2024/03/06 05:36:35;;;;;;;61.47;34.23;;;;;;;;;;783409;176;875607;-57
2024/03/06 05:39:00;;;;;;;73.40;35.13;;;;;;;;;;782122;177;924844;-59
2024/03/06 05:41:26;;;;;;;76.20;34.57;;;;;;;;;;777755;176;886721;-57
2024/03/06 05:43:52;;;;;;;69.30;33.60;;;;;;;;;;781011;175;936268;-59
2024/03/06 05:46:19;;;;;;;70.33;34.83;;;;;;;;;;779841;176;917473;-59
2024/03/06 05:48:44;;;;;;;79.73;38.63;;;;;;;;;;779525;177;872402;-58
2024/03/06 05:51:10;;;;;;;50.50;29.20;;;;;;;;;;790700;177;919992;-58
2024/03/06 05:53:38;;;;;;;75.43;36.60;;;;;;;;;;783419;177;812649;-58
2024/03/06 05:56:03;;;;;;;75.10;39.83;;;;;;;;;;786614;177;630169;-57
2024/03/06 05:58:29;;;;;;;65.77;36.63;;;;;;;;;;786507;177;865970;-57
2024/03/06 06:00:55;;;;;;;70.60;34.60;;;;;;;;;;778487;177;920508;-57
2024/03/06 06:03:21;;;;;;;73.83;35.90;;;;;;;;;;782846;177;633775;-57
2024/03/06 06:05:47;;;;;;;75.00;38.17;;;;;;;;;;784320;177;814856;-57
2024/03/06 06:08:13;;;;;;;61.30;30.88;;;;;;;;;;780128;176;819935;-59
2024/03/06 06:10:39;;;;;;;58.00;22.37;;;;;;;;;;778816;177;913619;-57
2024/03/06 06:13:04;;;;;;;50.60;23.67;;;;;;;;;;779251;177;915639;-59
2024/03/06 06:15:30;;;;;;;54.93;25.30;;;;;;;;;;766687;181;717680;-57
2024/03/06 06:17:56;;;;;;;51.67;23.80;;;;;;;;;;782644;175;623297;-59
2024/03/06 06:20:22;;;;;;;58.63;31.30;;;;;;;;;;782837;177;876882;-59
2024/03/06 06:22:48;;;;;;;41.67;23.90;;;;;;;;;;787916;177;621045;-58
2024/03/06 06:25:15;;;;;;;63.17;35.80;;;;;;;;;;773787;177;916709;-58
2024/03/06 06:27:40;;;;;;;51.13;23.30;;;;;;;;;;775329;177;915557;-59
2024/03/06 06:30:11;;;;;;;51.43;25.50;;;;;;;;;;778070;177;907607;-58
2024/03/06 06:32:33;;;;;;;44.80;24.27;;;;;;;;;;780741;177;880893;-58
2024/03/06 06:34:58;;;;;;;61.40;32.67;;;;;;;;;;778284;177;915718;-58
2024/03/06 06:37:24;;;;;;;62.00;30.37;;;;;;;;;;777298;177;920511;-57
2024/03/06 06:39:50;;;;;;;58.30;26.43;;;;;;;;;;776373;179;920006;-58
2024/03/06 06:42:16;;;;;;;62.53;32.30;;;;;;;;;;782265;176;919054;-57
2024/03/06 06:44:42;;;;;;;68.53;34.30;;;;;;;;;;779640;176;900269;-57
2024/03/06 06:47:08;;;;;;;50.10;24.47;;;;;;;;;;785274;177;920548;-57
2024/03/06 06:49:33;;;;;;;63.63;33.27;;;;;;;;;;778755;176;817498;-57
2024/03/06 06:51:59;;;;;;;40.40;21.43;;;;;;;;;;776914;177;914358;-59
2024/03/06 06:54:25;;;;;;;59.20;33.10;;;;;;;;;;785259;176;919894;-58
2024/03/06 06:56:51;;;;;;;76.63;35.40;;;;;;;;;;782639;177;919908;-58
2024/03/06 06:59:17;;;;;;;57.10;31.00;;;;;;;;;;777218;177;824023;-57
2024/03/06 07:01:43;;;;;;;56.85;26.87;;;;;;;;;;778337;177;919296;-58
2024/03/06 07:04:09;;;;;;;54.70;27.50;;;;;;;;;;778706;178;923100;-59
2024/03/06 07:06:35;;;;;;;55.33;30.80;;;;;;;;;;786246;176;713790;-59
2024/03/06 07:09:01;;;;;;;42.87;24.87;;;;;;;;;;777794;177;919629;-57
2024/03/06 07:11:26;;;;;;;46.53;27.63;;;;;;;;;;783820;177;930545;-58
2024/03/06 07:13:52;;;;;;;41.53;20.43;;;;;;;;;;783446;177;902969;-58
2024/03/06 07:16:19;;;;;;;49.58;22.75;;;;;;;;;;779332;177;919414;-59
2024/03/06 07:18:44;;;;;;;37.27;16.57;;;;;;;;;;784368;177;852495;-58
2024/03/06 07:21:10;;;;;;;41.13;22.60;;;;;;;;;;780169;177;918876;-59
2024/03/06 07:23:36;;;;;;;25.37;14.40;;;;;;;;;;781893;178;814810;-57
2024/03/06 07:26:01;;;;;;;38.80;24.60;;;;;;;;;;784011;178;902125;-58
2024/03/06 07:28:27;;;;;;;30.47;15.73;;;;;;;;;;780098;177;919172;-58
2024/03/06 07:30:53;;;;;;;38.37;20.83;;;;;;;;;;777852;177;922215;-59
2024/03/06 07:33:19;;;;;;;42.07;21.40;;;;;;;;;;772242;177;920621;-58
2024/03/06 07:35:45;;;;;;;34.90;16.73;;;;;;;;;;784186;177;919435;-58
2024/03/06 07:38:11;;;;;;;40.70;20.87;;;;;;;;;;780361;177;916789;-58
2024/03/06 07:40:37;;;;;;;34.03;16.70;;;;;;;;;;778743;179;919878;-57
2024/03/06 07:43:04;;;;;;;40.27;18.87;;;;;;;;;;782027;177;912432;-59
2024/03/06 07:45:29;;;;;;;38.33;22.27;;;;;;;;;;781794;177;819405;-57
2024/03/06 07:47:54;;;;;;;39.10;20.27;;;;;;;;;;775709;177;919445;-57
2024/03/06 07:50:20;;;;;;;25.13;16.20;;;;;;;;;;787778;177;741128;-58
2024/03/06 07:52:46;;;;;;;46.77;20.57;;;;;;;;;;780165;176;920028;-57
2024/03/06 07:55:12;;;;;;;35.10;16.57;;;;;;;;;;773489;177;915045;-58
2024/03/06 07:57:38;;;;;;;48.97;27.50;;;;;;;;;;777974;177;922059;-59
2024/03/06 08:00:14;;;;;;;42.17;22.27;;;;;;;;;;772591;178;913615;-58
2024/03/06 08:02:31;;;;;;;40.93;24.20;;;;;;;;;;779061;177;804917;-58
2024/03/06 08:04:57;;;;;;;29.17;19.23;;;;;;;;;;782219;176;897270;-58
2024/03/06 08:07:22;;;;;;;27.90;18.60;;;;;;;;;;784811;177;920493;-58
2024/03/06 08:09:48;;;;;;;35.47;17.00;;;;;;;;;;782714;177;918630;-57
2024/03/06 08:12:14;;;;;;;33.10;18.17;;;;;;;;;;781576;177;855750;-58
2024/03/06 08:14:40;;;;;;;48.70;24.90;;;;;;;;;;789653;177;855134;-59
2024/03/06 08:17:06;;;;;;;40.13;21.50;;;;;;;;;;775495;177;952223;-58
2024/03/06 08:19:32;;;;;;;42.30;21.17;;;;;;;;;;773881;177;917139;-58
2024/03/06 08:21:57;;;;;;;38.93;24.50;;;;;;;;;;777346;177;979119;-59
2024/03/06 08:24:24;;;;;;;31.23;16.70;;;;;;;;;;777867;179;816989;-57
2024/03/06 08:26:49;;;;;;;44.97;18.53;;;;;;;;;;776151;177;920020;-58
2024/03/06 08:29:15;;;;;;;63.93;26.93;;;;;;;;;;782094;176;909376;-58
2024/03/06 08:31:41;;;;;;;36.33;16.57;;;;;;;;;;783353;178;919192;-61
2024/03/06 08:34:07;;;;;;;68.67;33.33;;;;;;;;;;781210;177;813708;-59
2024/03/06 08:36:32;;;;;;;74.03;29.00;;;;;;;;;;773831;177;919589;-59
2024/03/06 08:38:58;;;;;;;44.70;22.60;;;;;;;;;;787661;177;919151;-62
2024/03/06 08:41:24;;;;;;;41.97;21.07;;;;;;;;;;779725;177;944287;-57
2024/03/06 08:43:50;;;;;;;45.47;20.73;;;;;;;;;;781697;177;918807;-58
2024/03/06 08:46:16;;;;;;;47.53;25.50;;;;;;;;;;785934;177;879047;-59
2024/03/06 08:48:42;;;;;;;30.97;16.03;;;;;;;;;;771133;179;822928;-59
2024/03/06 08:51:10;;;;;;;37.23;17.03;;;;;;;;;;777283;176;816689;-58
2024/03/06 08:53:34;;;;;;;36.53;18.67;;;;;;;;;;779316;177;919262;-59
2024/03/06 08:56:00;;;;;;;46.43;19.27;;;;;;;;;;785740;177;806940;-59
2024/03/06 08:58:26;;;;;;;40.90;24.83;;;;;;;;;;780918;177;860524;-58
2024/03/06 09:00:51;;;;;;;28.67;16.62;;;;;;;;;;783056;177;816274;-58
2024/03/06 09:03:17;;;;;;;34.63;16.83;;;;;;;;;;785652;177;814728;-58
2024/03/06 09:05:43;;;;;;;37.77;20.20;;;;;;;;;;774384;177;919274;-57
2024/03/06 09:08:09;;;;;;;38.10;17.83;;;;;;;;;;776938;177;918521;-59
2024/03/06 09:10:35;;;;;;;36.03;18.07;;;;;;;;;;784545;176;819244;-57
2024/03/06 09:13:01;;;;;;;33.47;13.67;;;;;;;;;;772306;177;917947;-59
2024/03/06 09:15:26;;;;;;;17.70;10.48;;;;;;;;;;781076;176;911108;-58
2024/03/06 09:17:52;;;;;;;37.97;18.77;;;;;;;;;;783713;175;815239;-58
2024/03/06 09:20:18;;;;;;;37.23;19.27;;;;;;;;;;788094;177;920529;-59
2024/03/06 09:22:44;;;;;;;36.43;19.80;;;;;;;;;;783613;177;1019825;-58
2024/03/06 09:25:10;;;;;;;22.83;12.60;;;;;;;;;;779056;176;919105;-58
2024/03/06 09:27:36;;;;;;;34.60;15.60;;;;;;;;;;781814;177;925881;-57
2024/03/06 09:30:02;;;;;;;32.00;14.67;;;;;;;;;;778824;178;713475;-59
2024/03/06 09:32:27;;;;;;;28.97;16.57;;;;;;;;;;775139;177;919612;-59
2024/03/06 09:34:53;;;;;;;31.70;13.47;;;;;;;;;;784368;177;859605;-58
2024/03/06 09:37:19;;;;;;;21.87;10.73;;;;;;;;;;782064;177;918985;-58
2024/03/06 09:39:47;;;;;;;22.47;11.83;;;;;;;;;;778262;177;956961;-59
2024/03/06 09:42:13;;;;;;;22.97;13.97;;;;;;;;;;778714;177;919588;-58
2024/03/06 09:44:38;;;;;;;12.20;8.20;;;;;;;;;;782695;178;918494;-59
2024/03/06 09:47:04;;;;;;;24.97;13.47;;;;;;;;;;780069;177;918848;-60
2024/03/06 09:49:30;;;;;;;29.70;15.48;;;;;;;;;;776204;177;920812;-58
2024/03/06 09:51:58;;;;;;;21.10;13.97;;;;;;;;;;786044;177;817301;-59
2024/03/06 09:54:22;;;;;;;26.93;16.30;;;;;;;;;;774419;177;920068;-58
2024/03/06 09:56:48;;;;;;;16.80;11.27;;;;;;;;;;782457;178;819613;-58
2024/03/06 09:59:14;;;;;;;23.10;13.00;;;;;;;;;;785330;177;923855;-59
2024/03/06 10:01:40;;;;;;;24.03;12.77;;;;;;;;;;781294;177;877481;-58
2024/03/06 10:04:14;;;;;;;24.37;11.50;;;;;;;;;;784321;177;919549;-59
2024/03/06 10:06:37;;;;;;;15.87;9.30;;;;;;;;;;780272;177;816024;-60
2024/03/06 10:09:08;;;;;;;18.48;9.85;;;;;;;;;;784847;176;913425;-58
2024/03/06 10:11:32;;;;;;;27.20;11.57;;;;;;;;;;778383;177;918635;-58
2024/03/06 10:13:55;;;;;;;18.25;12.52;;;;;;;;;;772177;179;933412;-59
2024/03/06 10:16:21;;;;;;;21.07;12.30;;;;;;;;;;781485;177;918716;-59
2024/03/06 10:18:47;;;;;;;29.10;13.60;;;;;;;;;;773416;177;915943;-59
2024/03/06 10:21:13;;;;;;;23.65;14.50;;;;;;;;;;775302;176;915944;-59
2024/03/06 10:23:39;;;;;;;19.50;11.93;;;;;;;;;;777016;177;917842;-58
2024/03/06 10:26:05;;;;;;;17.63;11.90;;;;;;;;;;783100;176;790522;-58
2024/03/06 10:28:31;;;;;;;31.03;12.23;;;;;;;;;;783034;176;751078;-59
2024/03/06 10:30:57;;;;;;;21.15;11.80;;;;;;;;;;780070;176;1024472;-59
2024/03/06 10:33:23;;;;;;;20.10;12.43;;;;;;;;;;786813;175;813246;-58
2024/03/06 10:35:49;;;;;;;13.20;8.20;;;;;;;;;;780270;177;926021;-58
2024/03/06 10:38:15;;;;;;;24.77;8.80;;;;;;;;;;781611;177;884784;-58
2024/03/06 10:40:40;;;;;;;19.50;9.87;;;;;;;;;;781933;177;918682;-60
2024/03/06 10:43:06;;;;;;;38.13;20.50;;;;;;;;;;780029;177;919626;-61
2024/03/06 10:45:44;;;;;;;23.65;12.45;;;;;;;;;;785154;177;918682;-59
2024/03/06 10:48:11;;;;;;;21.77;14.20;;;;;;;;;;779289;177;882975;-59
2024/03/06 10:50:36;;;;;;;17.23;9.17;;;;;;;;;;780846;177;922870;-59
2024/03/06 10:53:02;;;;;;;26.87;8.93;;;;;;;;;;783943;176;919511;-60
2024/03/06 10:55:28;;;;;;;12.67;7.43;;;;;;;;;;782010;176;918200;-58
2024/03/06 10:57:54;;;;;;;27.83;12.50;;;;;;;;;;780664;176;815399;-60
2024/03/06 11:00:20;;;;;;;14.97;10.03;;;;;;;;;;783669;177;820178;-60
2024/03/06 11:02:47;;;;;;;19.03;10.50;;;;;;;;;;774525;177;918827;-60
2024/03/06 11:05:12;;;;;;;22.10;11.40;;;;;;;;;;777665;177;787281;-59
2024/03/06 11:07:38;;;;;;;20.05;11.70;;;;;;;;;;785070;175;917997;-58
2024/03/06 11:10:04;;;;;;;16.40;8.80;;;;;;;;;;779998;177;863546;-59
2024/03/06 11:12:36;;;;;;;16.20;9.90;;;;;;;;;;770904;177;925731;-60
2024/03/06 11:15:03;;;;;;;15.53;7.80;;;;;;;;;;778860;177;916623;-59
2024/03/06 11:17:28;;;;;;;17.43;10.57;;;;;;;;;;786804;176;913676;-58
2024/03/06 11:20:14;;;;;;;14.27;9.97;;;;;;;;;;781686;177;919517;-58
2024/03/06 11:22:45;;;;;;;19.83;13.13;;;;;;;;;;781678;177;925493;-60
2024/03/06 11:25:11;;;;;;;13.68;8.38;;;;;;;;;;783794;177;919057;-61
2024/03/06 11:27:37;;;;;;;18.77;7.30;;;;;;;;;;776146;177;919463;-60
2024/03/06 11:30:10;;;;;;;19.70;12.30;;;;;;;;;;769878;179;810752;-59
2024/03/06 11:32:30;;;;;;;16.80;11.33;;;;;;;;;;774962;177;900375;-60
2024/03/06 11:34:55;;;;;;;13.20;7.07;;;;;;;;;;774914;177;919644;-60
2024/03/06 11:37:22;;;;;;;21.40;11.13;;;;;;;;;;785401;177;920991;-61
2024/03/06 11:39:47;;;;;;;16.37;9.33;;;;;;;;;;780859;177;919046;-59
2024/03/06 11:42:13;;;;;;;12.27;7.73;;;;;;;;;;778874;177;888362;-61
2024/03/06 11:44:39;;;;;;;14.97;9.07;;;;;;;;;;786234;176;841473;-61
2024/03/06 11:47:05;;;;;;;16.40;10.37;;;;;;;;;;779145;176;918826;-59
2024/03/06 11:49:33;;;;;;;15.50;10.80;;;;;;;;;;780345;177;816519;-61
2024/03/06 11:51:57;;;;;;;12.37;7.03;;;;;;;;;;777090;177;922500;-61
2024/03/06 11:54:25;;;;;;;16.53;11.63;;;;;;;;;;775655;178;916306;-60
2024/03/06 11:56:50;;;;;;;16.97;9.67;;;;;;;;;;782799;177;917726;-61
2024/03/06 11:59:15;;;;;;;20.37;9.67;;;;;;;;;;777459;177;917633;-61
2024/03/06 12:01:41;;;;;;;22.33;10.90;;;;;;;;;;784875;177;895626;-61
2024/03/06 12:04:07;;;;;;;17.07;8.93;;;;;;;;;;778908;177;919193;-59
2024/03/06 12:06:32;;;;;;;13.43;10.35;;;;;;;;;;780334;177;819260;-60
2024/03/06 12:08:58;;;;;;;15.07;7.63;;;;;;;;;;783795;177;888068;-59
2024/03/06 12:11:25;;;;;;;20.40;11.20;;;;;;;;;;777610;177;920221;-60
2024/03/06 12:13:50;;;;;;;13.25;7.00;;;;;;;;;;774464;177;919260;-58
2024/03/06 12:16:17;;;;;;;14.95;9.00;;;;;;;;;;778934;177;921325;-58
2024/03/06 12:18:42;;;;;;;24.00;11.10;;;;;;;;;;762302;181;914478;-59
2024/03/06 12:21:08;;;;;;;13.43;9.80;;;;;;;;;;774342;177;914562;-58
2024/03/06 12:23:34;;;;;;;19.07;11.43;;;;;;;;;;778709;177;815173;-59
2024/03/06 12:26:03;;;;;;;20.23;10.43;;;;;;;;;;785431;178;808913;-59
2024/03/06 12:28:29;;;;;;;14.63;9.07;;;;;;;;;;783438;176;932560;-58
2024/03/06 12:30:54;;;;;;;27.58;13.60;;;;;;;;;;781105;177;916101;-58
2024/03/06 12:33:20;;;;;;;14.17;8.83;;;;;;;;;;785259;177;867536;-59
2024/03/06 12:35:48;;;;;;;18.00;10.73;;;;;;;;;;780762;177;917908;-60
2024/03/06 12:38:12;;;;;;;9.10;5.65;;;;;;;;;;780237;177;918679;-59
2024/03/06 12:40:39;;;;;;;14.13;8.43;;;;;;;;;;779513;177;892673;-58
2024/03/06 12:43:04;;;;;;;7.40;5.50;;;;;;;;;;770720;179;860131;-58
2024/03/06 12:45:29;;;;;;;15.27;9.73;;;;;;;;;;782810;176;881110;-60
2024/03/06 12:47:56;;;;;;;12.73;7.67;;;;;;;;;;779218;177;931240;-60
2024/03/06 12:50:21;;;;;;;10.40;7.13;;;;;;;;;;786223;177;859292;-59
2024/03/06 12:52:47;;;;;;;16.47;10.50;;;;;;;;;;777091;178;919482;-60
2024/03/06 12:55:14;;;;;;;14.43;6.73;;;;;;;;;;776088;176;919264;-59
2024/03/06 12:57:39;;;;;;;14.57;9.60;;;;;;;;;;788561;177;919839;-60
2024/03/06 13:00:13;;;;;;;17.30;8.77;;;;;;;;;;780619;177;920267;-58
2024/03/06 13:02:31;;;;;;;16.83;10.23;;;;;;;;;;779759;176;865995;-58
2024/03/06 13:04:57;;;;;;;22.00;9.47;;;;;;;;;;780458;178;918605;-58
2024/03/06 13:07:23;;;;;;;15.80;10.23;;;;;;;;;;778203;179;918685;-59
2024/03/06 13:09:49;;;;;;;12.35;6.72;;;;;;;;;;779393;176;955517;-58
2024/03/06 13:12:14;;;;;;;14.18;7.82;;;;;;;;;;775355;176;918696;-59
2024/03/06 13:14:40;;;;;;;11.27;6.20;;;;;;;;;;787999;177;860564;-64
2024/03/06 13:17:07;;;;;;;14.53;9.30;;;;;;;;;;778021;177;889997;-60
2024/03/06 13:19:32;;;;;;;18.60;10.90;;;;;;;;;;779405;177;963703;-58
2024/03/06 13:21:58;;;;;;;9.57;6.43;;;;;;;;;;783211;177;714162;-62
2024/03/06 13:24:24;;;;;;;12.13;7.50;;;;;;;;;;782110;177;894070;-59
2024/03/06 13:26:50;;;;;;;20.23;9.70;;;;;;;;;;774411;177;911197;-58
2024/03/06 13:29:16;;;;;;;11.57;7.00;;;;;;;;;;781362;177;807564;-58
2024/03/06 13:31:41;;;;;;;9.73;5.20;;;;;;;;;;777390;177;952709;-59
2024/03/06 13:34:07;;;;;;;19.25;10.52;;;;;;;;;;776475;176;919642;-59
2024/03/06 13:36:33;;;;;;;15.90;8.30;;;;;;;;;;776943;177;863920;-58
2024/03/06 13:38:59;;;;;;;12.50;6.30;;;;;;;;;;782498;177;919850;-58
2024/03/06 13:41:24;;;;;;;14.40;7.93;;;;;;;;;;779581;177;920082;-59
2024/03/06 13:43:50;;;;;;;13.20;7.97;;;;;;;;;;773572;179;918285;-60
2024/03/06 13:46:16;;;;;;;10.93;6.93;;;;;;;;;;785460;177;919401;-59
2024/03/06 13:48:42;;;;;;;19.50;9.60;;;;;;;;;;784096;177;932536;-59
2024/03/06 13:51:08;;;;;;;15.40;9.20;;;;;;;;;;779027;179;884323;-59
2024/03/06 13:53:34;;;;;;;21.10;10.10;;;;;;;;;;776659;177;919032;-58
2024/03/06 13:55:59;;;;;;;20.07;11.40;;;;;;;;;;780414;177;920348;-58
2024/03/06 13:58:26;;;;;;;16.50;10.97;;;;;;;;;;781154;177;845794;-58